createdAt,value
2022-08-31T00:02:10.136Z,30.00
2022-08-31T00:07:15.849Z,30.30
2022-08-31T00:12:21.379Z,30.40
2022-08-31T00:17:27.193Z,30.50
2022-08-31T00:22:34.158Z,30.50
2022-08-31T00:27:40.359Z,30.70
2022-08-31T00:32:46.025Z,30.80
2022-08-31T00:37:53.597Z,31.00
2022-08-31T00:43:00.896Z,31.30
2022-08-31T00:48:06.544Z,31.60
2022-08-31T00:53:11.652Z,31.50
2022-08-31T00:58:17.055Z,31.40
2022-08-31T01:03:24.445Z,31.60
2022-08-31T01:08:30.870Z,32.30
2022-08-31T01:13:36.883Z,32.80
2022-08-31T01:18:44.584Z,33.80
2022-08-31T01:23:50.136Z,34.30
2022-08-31T01:29:00.045Z,34.50
2022-08-31T01:34:06.028Z,34.50
2022-08-31T01:39:13.154Z,34.60
2022-08-31T01:44:23.211Z,34.70
2022-08-31T01:49:28.908Z,34.80
2022-08-31T01:54:34.138Z,35.10
2022-08-31T01:59:40.357Z,35.50
2022-08-31T02:05:04.405Z,34.50
2022-08-31T02:10:11.112Z,33.60
2022-08-31T02:15:18.437Z,33.40
2022-08-31T02:20:24.734Z,34.20
2022-08-31T02:25:31.743Z,34.10
2022-08-31T02:30:39.679Z,33.50
2022-08-31T02:35:46.945Z,33.10
2022-08-31T02:40:58.239Z,33.40
2022-08-31T02:46:04.965Z,34.40
2022-08-31T02:51:16.601Z,35.20
2022-08-31T02:56:25.281Z,35.70
2022-08-31T03:01:31.997Z,36.20
2022-08-31T03:06:37.648Z,36.30
2022-08-31T03:11:43.373Z,35.90
2022-08-31T03:16:51.953Z,36.20
2022-08-31T03:21:58.502Z,36.30
2022-08-31T03:27:04.481Z,35.90
2022-08-31T03:32:10.068Z,35.90
2022-08-31T03:37:18.780Z,35.80
2022-08-31T03:42:23.908Z,35.60
2022-08-31T03:47:29.479Z,35.80
2022-08-31T03:52:38.534Z,35.90
2022-08-31T03:57:51.567Z,36.20
2022-08-31T04:03:01.232Z,36.30
2022-08-31T04:08:10.315Z,36.40
2022-08-31T04:13:44.538Z,36.60
2022-08-31T04:19:21.954Z,36.40
2022-08-31T04:24:45.965Z,36.20
2022-08-31T04:29:51.509Z,35.80
2022-08-31T04:34:57.357Z,35.70
2022-08-31T04:40:06.259Z,36.20
2022-08-31T04:45:13.161Z,37.10
2022-08-31T04:50:19.444Z,37.90
2022-08-31T04:55:45.137Z,38.60
2022-08-31T05:00:52.431Z,38.90
2022-08-31T05:06:06.608Z,39.10
2022-08-31T05:11:14.295Z,39.00
2022-08-31T05:16:21.188Z,39.60
2022-08-31T05:21:32.231Z,38.80
2022-08-31T05:26:42.047Z,37.50
2022-08-31T05:31:52.265Z,37.80
2022-08-31T05:36:59.799Z,37.60
2022-08-31T05:42:11.327Z,37.90
2022-08-31T05:47:16.861Z,37.50
2022-08-31T05:52:24.865Z,37.30
2022-08-31T05:57:32.108Z,36.40
2022-08-31T06:02:41.302Z,36.20
2022-08-31T06:07:49.731Z,36.80
2022-08-31T06:12:55.199Z,38.00
2022-08-31T06:18:01.445Z,39.20
2022-08-31T06:23:09.973Z,41.00
2022-08-31T06:28:22.706Z,42.30
2022-08-31T06:33:28.711Z,44.50
2022-08-31T06:38:41.900Z,44.50
2022-08-31T06:44:23.733Z,45.20
2022-08-31T06:49:58.806Z,45.30
2022-08-31T06:55:04.613Z,45.00
2022-08-31T07:00:28.301Z,44.50
2022-08-31T07:05:58.038Z,44.80
2022-08-31T07:11:05.077Z,44.50
2022-08-31T07:16:13.377Z,44.30
2022-08-31T07:21:23.793Z,44.30
2022-08-31T07:26:37.390Z,44.00
2022-08-31T07:31:51.985Z,43.30
2022-08-31T07:37:17.834Z,42.90
2022-08-31T07:42:30.267Z,42.30
2022-08-31T07:47:37.094Z,41.90
2022-08-31T07:52:49.370Z,41.50
2022-08-31T07:58:15.007Z,41.90
2022-08-31T08:03:23.410Z,42.00
2022-08-31T08:09:01.578Z,42.10
2022-08-31T08:14:41.701Z,41.20
2022-08-31T08:20:11.653Z,39.60
2022-08-31T08:25:25.872Z,38.70
2022-08-31T08:30:47.254Z,37.90
2022-08-31T08:36:01.156Z,37.30
2022-08-31T08:41:17.322Z,36.70
2022-08-31T08:46:53.098Z,36.40
2022-08-31T08:52:06.939Z,36.10
2022-08-31T08:57:20.297Z,35.80
2022-08-31T09:02:51.487Z,35.50
2022-08-31T09:08:11.712Z,35.30
2022-08-31T09:13:34.575Z,35.00
2022-08-31T09:19:03.362Z,34.80
2022-08-31T09:24:15.521Z,34.80
2022-08-31T09:29:34.157Z,34.70
2022-08-31T09:34:43.852Z,34.70
2022-08-31T09:39:51.646Z,34.50
2022-08-31T09:45:00.536Z,34.40
2022-08-31T09:50:13.582Z,34.30
2022-08-31T09:55:26.913Z,34.20
2022-08-31T10:00:43.321Z,34.00
2022-08-31T10:05:50.254Z,33.80
2022-08-31T10:11:00.143Z,33.60
2022-08-31T10:16:18.494Z,33.40
2022-08-31T10:21:37.074Z,33.30
2022-08-31T10:26:47.897Z,33.20
2022-08-31T10:31:57.394Z,33.00
2022-08-31T10:37:17.605Z,32.90
2022-08-31T10:42:37.473Z,32.90
2022-08-31T10:47:50.454Z,32.90
2022-08-31T10:53:16.882Z,32.70
2022-08-31T10:58:34.994Z,32.60
2022-08-31T11:03:56.089Z,32.50
2022-08-31T11:09:26.990Z,32.30
2022-08-31T11:15:00.094Z,32.20
2022-08-31T11:20:30.077Z,32.10
2022-08-31T11:26:08.639Z,32.00
2022-08-31T11:31:25.850Z,31.90
2022-08-31T11:36:51.561Z,31.80
2022-08-31T11:41:57.263Z,31.80
2022-08-31T11:47:09.738Z,31.80
2022-08-31T11:52:30.687Z,31.80
2022-08-31T11:58:07.869Z,31.70
2022-08-31T12:03:33.356Z,31.70
2022-08-31T12:08:59.312Z,31.60
2022-08-31T12:14:27.513Z,31.60
2022-08-31T12:20:13.893Z,31.60
2022-08-31T12:25:54.551Z,31.60
2022-08-31T12:31:06.638Z,31.60
2022-08-31T12:36:18.164Z,31.60
2022-08-31T12:41:25.496Z,31.50
2022-08-31T12:46:46.784Z,31.50
2022-08-31T12:52:16.851Z,31.40
2022-08-31T12:57:42.638Z,31.40
2022-08-31T13:02:53.517Z,31.30
2022-08-31T13:08:00.968Z,31.30
2022-08-31T13:13:26.088Z,31.30
2022-08-31T13:18:32.641Z,31.10
2022-08-31T13:23:42.378Z,31.00
2022-08-31T13:29:09.568Z,30.90
2022-08-31T13:34:15.937Z,30.70
2022-08-31T13:39:40.646Z,30.70
2022-08-31T13:44:48.470Z,30.60
2022-08-31T13:50:08.713Z,30.60
2022-08-31T13:55:15.657Z,30.50
2022-08-31T14:00:35.955Z,30.40
2022-08-31T14:05:41.651Z,30.30
2022-08-31T14:10:50.991Z,30.40
2022-08-31T14:15:59.639Z,30.40
2022-08-31T14:21:20.560Z,30.40
2022-08-31T14:26:29.562Z,30.40
2022-08-31T14:31:45.380Z,30.30
2022-08-31T14:37:03.667Z,30.30
2022-08-31T14:42:18.801Z,30.30
2022-08-31T14:47:33.842Z,30.20
2022-08-31T14:52:41.468Z,30.20
2022-08-31T14:57:48.776Z,30.20
2022-08-31T15:02:56.116Z,30.10
2022-08-31T15:08:02.107Z,30.10
2022-08-31T15:13:10.175Z,30.10
2022-08-31T15:18:16.345Z,30.00
2022-08-31T15:23:22.242Z,30.00
2022-08-31T15:28:33.330Z,29.90
2022-08-31T15:33:41.422Z,29.90
2022-08-31T15:38:47.349Z,29.80
2022-08-31T15:43:53.644Z,29.80
2022-08-31T15:48:58.837Z,29.80
2022-08-31T15:54:21.761Z,29.80
2022-08-31T15:59:28.519Z,29.80
2022-08-31T16:04:39.870Z,29.80
2022-08-31T16:09:48.507Z,29.80
2022-08-31T16:14:54.003Z,29.70
2022-08-31T16:19:59.450Z,29.70
2022-08-31T16:25:08.344Z,29.70
2022-08-31T16:30:15.631Z,29.70
2022-08-31T16:35:21.006Z,29.70
2022-08-31T16:40:27.333Z,29.50
2022-08-31T16:45:32.822Z,29.50
2022-08-31T16:50:38.413Z,29.50
2022-08-31T16:55:45.867Z,29.50
2022-08-31T17:00:52.456Z,29.50
2022-08-31T17:05:58.597Z,29.40
2022-08-31T17:11:12.986Z,29.40
2022-08-31T17:16:23.795Z,29.40
2022-08-31T17:21:31.516Z,29.40
2022-08-31T17:26:36.894Z,29.30
2022-08-31T17:31:47.517Z,29.30
2022-08-31T17:36:53.793Z,29.30
2022-08-31T17:42:00.363Z,29.30
2022-08-31T17:47:06.345Z,29.30
2022-08-31T17:52:14.294Z,29.30
2022-08-31T17:57:21.379Z,29.20
2022-08-31T18:02:33.911Z,29.20
2022-08-31T18:07:39.983Z,29.10
2022-08-31T18:12:45.503Z,29.20
2022-08-31T18:17:51.333Z,29.20
2022-08-31T18:22:57.180Z,29.20
2022-08-31T18:28:04.849Z,29.10
2022-08-31T18:33:13.873Z,29.10
2022-08-31T18:38:20.931Z,29.10
2022-08-31T18:43:44.855Z,29.10
2022-08-31T18:49:11.440Z,29.10
2022-08-31T18:54:17.825Z,29.00
2022-08-31T18:59:23.302Z,29.00
2022-08-31T19:04:28.633Z,29.00
2022-08-31T19:09:34.927Z,29.00
2022-08-31T19:14:40.764Z,28.90
2022-08-31T19:19:48.260Z,28.90
2022-08-31T19:24:53.875Z,28.90
2022-08-31T19:29:59.469Z,28.80
2022-08-31T19:35:05.665Z,28.80
2022-08-31T19:40:18.562Z,28.80
2022-08-31T19:45:24.475Z,28.80
2022-08-31T19:50:30.903Z,28.80
2022-08-31T19:55:36.561Z,28.80
2022-08-31T20:00:41.854Z,28.80
2022-08-31T20:05:47.883Z,28.90
2022-08-31T20:10:53.579Z,28.90
2022-08-31T20:15:59.202Z,29.00
2022-08-31T20:21:06.053Z,29.00
2022-08-31T20:26:13.301Z,29.00
2022-08-31T20:31:19.635Z,29.00
2022-08-31T20:36:31.587Z,29.00
2022-08-31T20:41:42.880Z,29.10
2022-08-31T20:47:10.045Z,29.10
2022-08-31T20:52:18.167Z,29.10
2022-08-31T20:57:24.359Z,29.20
2022-08-31T21:02:30.850Z,29.20
2022-08-31T21:07:37.643Z,29.20
2022-08-31T21:12:43.208Z,29.20
2022-08-31T21:17:49.670Z,29.20
2022-08-31T21:22:55.687Z,29.20
2022-08-31T21:28:01.587Z,29.20
2022-08-31T21:33:06.968Z,29.10
2022-08-31T21:38:14.418Z,29.10
2022-08-31T21:43:20.305Z,29.10
2022-08-31T21:48:26.249Z,29.10
2022-08-31T21:53:32.465Z,29.00
2022-08-31T21:58:38.298Z,29.00
2022-08-31T22:03:44.297Z,29.00
2022-08-31T22:08:52.067Z,29.10
2022-08-31T22:14:00.132Z,29.20
2022-08-31T22:19:07.327Z,29.20
2022-08-31T22:24:27.723Z,29.10
2022-08-31T22:29:36.926Z,29.00
2022-08-31T22:34:44.831Z,29.00
2022-08-31T22:39:52.187Z,29.00
2022-08-31T22:44:57.798Z,28.90
2022-08-31T22:50:02.953Z,28.90
2022-08-31T22:55:10.664Z,28.90
2022-08-31T23:00:16.202Z,28.90
2022-08-31T23:05:22.389Z,28.90
2022-08-31T23:10:28.517Z,28.90
2022-08-31T23:15:35.125Z,28.90
2022-08-31T23:20:43.162Z,28.90
2022-08-31T23:25:48.907Z,28.90
2022-08-31T23:30:54.125Z,28.90
2022-08-31T23:35:59.967Z,28.90
2022-08-31T23:41:05.694Z,28.90
2022-08-31T23:46:16.954Z,28.90
2022-08-31T23:51:23.997Z,28.90
2022-08-31T23:56:34.152Z,28.80
